Time;durP1;ratioP1;P1;durP2;ratioP2;P2;SDS_P1;SDS_P2;PMS_P1;PMS_P2;Temp;Humidity;BMP_temperature;BMP_pressure;BME280_temperature;BME280_humidity;BME280_pressure;Samples;Min_cycle;Max_cycle;Signal;HPM_P1;HPM_P2
2023/01/18 00:00:14;;;;;;;34.63;16.73;;;;;;;-0.67;100.00;99101.44;5029916;28;20194;-73
2023/01/18 00:02:40;;;;;;;33.60;17.90;;;;;;;-0.68;100.00;99117.31;5029441;28;20232;-73
2023/01/18 00:05:05;;;;;;;33.70;16.90;;;;;;;-0.67;100.00;99109.84;5030735;28;20311;-73
2023/01/18 00:07:31;;;;;;;31.77;17.40;;;;;;;-0.68;100.00;99104.75;5032726;28;20550;-73
2023/01/18 00:09:56;;;;;;;32.63;16.70;;;;;;;-0.70;100.00;99109.72;5023009;28;20210;-73
2023/01/18 00:12:22;;;;;;;29.53;15.50;;;;;;;-0.67;100.00;99116.53;5029436;28;20206;-74
2023/01/18 00:14:47;;;;;;;32.90;17.03;;;;;;;-0.68;100.00;99125.69;5025803;28;20235;-74
2023/01/18 00:17:13;;;;;;;31.83;15.87;;;;;;;-0.69;100.00;99126.50;5029260;28;20187;-73
2023/01/18 00:19:38;;;;;;;35.47;16.67;;;;;;;-0.69;100.00;99124.00;5032157;28;20279;-73
2023/01/18 00:22:03;;;;;;;31.10;16.03;;;;;;;-0.71;100.00;99133.16;5024787;28;20234;-73
2023/01/18 00:24:29;;;;;;;28.57;15.97;;;;;;;-0.77;100.00;99132.06;5028876;28;20758;-73
2023/01/18 00:26:54;;;;;;;32.00;17.07;;;;;;;-0.76;100.00;99128.75;5029567;28;20202;-71
2023/01/18 00:29:19;;;;;;;32.17;16.30;;;;;;;-0.76;100.00;99126.25;5012181;28;20198;-71
2023/01/18 00:31:45;;;;;;;33.93;16.20;;;;;;;-0.74;100.00;99127.13;5025934;28;20222;-71
2023/01/18 00:34:10;;;;;;;35.20;16.60;;;;;;;-0.73;100.00;99132.22;5011206;28;20191;-71
2023/01/18 00:36:36;;;;;;;33.20;17.07;;;;;;;-0.76;100.00;99141.31;5033377;28;20207;-72
2023/01/18 00:39:03;;;;;;;29.10;15.60;;;;;;;-0.76;100.00;99139.66;5021851;28;20242;-70
2023/01/18 00:41:28;;;;;;;33.03;16.67;;;;;;;-0.76;100.00;99141.31;5029289;28;20240;-71
2023/01/18 00:43:54;;;;;;;31.43;16.30;;;;;;;-0.81;100.00;99140.28;5027873;28;20214;-72
2023/01/18 00:46:22;;;;;;;35.07;18.67;;;;;;;-0.77;100.00;99145.47;5028500;28;20205;-72
2023/01/18 00:48:48;;;;;;;36.00;17.40;;;;;;;-0.80;100.00;99144.50;5027858;28;20194;-73
2023/01/18 00:51:23;;;;;;;34.30;16.93;;;;;;;-0.79;100.00;99149.59;5005168;28;20221;-73
2023/01/18 00:53:49;;;;;;;34.27;17.07;;;;;;;-0.81;100.00;99152.84;5022931;28;20210;-74
2023/01/18 00:56:17;;;;;;;35.20;17.30;;;;;;;-0.81;100.00;99147.84;5028298;28;20715;-73
2023/01/18 00:58:43;;;;;;;39.10;18.57;;;;;;;-0.76;100.00;99156.38;5030102;28;20232;-73
2023/01/18 01:01:10;;;;;;;35.97;18.30;;;;;;;-0.75;100.00;99153.94;5028886;28;20230;-74
2023/01/18 01:06:43;;;;;;;39.43;18.00;;;;;;;-0.74;100.00;99153.13;5020095;28;20187;-72
2023/01/18 01:09:13;;;;;;;37.73;18.57;;;;;;;-0.73;100.00;99156.50;5027227;28;20210;-72
2023/01/18 01:11:39;;;;;;;37.53;18.83;;;;;;;-0.78;100.00;99158.00;5022645;28;20205;-73
2023/01/18 01:27:44;;;;;;;39.10;20.07;;;;;;;-0.76;100.00;99151.34;5028376;28;20217;-73
2023/01/18 01:30:10;;;;;;;38.73;19.50;;;;;;;-0.73;100.00;99161.53;5027000;28;20190;-73
2023/01/18 01:32:35;;;;;;;40.43;20.40;;;;;;;-0.75;100.00;99150.56;5007942;28;20226;-73
2023/01/18 01:35:01;;;;;;;45.97;19.43;;;;;;;-0.76;100.00;99156.38;5026979;28;20198;-73
2023/01/18 01:37:26;;;;;;;42.60;19.50;;;;;;;-0.80;100.00;99154.56;5025543;28;20256;-71
2023/01/18 01:39:52;;;;;;;38.90;19.47;;;;;;;-0.81;100.00;99155.38;5026283;28;20190;-73
2023/01/18 01:42:17;;;;;;;37.37;19.97;;;;;;;-0.85;100.00;99146.00;5028156;28;20210;-72
2023/01/18 01:44:48;;;;;;;39.97;19.47;;;;;;;-0.84;100.00;99148.56;5026830;28;20210;-73
2023/01/18 01:47:33;;;;;;;39.03;19.43;;;;;;;-0.85;100.00;99148.50;5019326;28;20250;-73
2023/01/18 01:50:10;;;;;;;42.63;19.33;;;;;;;-0.86;100.00;99145.13;5025424;28;20194;-73
2023/01/18 01:52:40;;;;;;;37.87;18.47;;;;;;;-0.90;100.00;99145.84;5026294;28;20710;-73
2023/01/18 01:55:34;;;;;;;42.40;20.33;;;;;;;-0.90;100.00;99138.31;5024656;28;20191;-72
2023/01/18 01:58:11;;;;;;;41.13;20.20;;;;;;;-0.92;100.00;99134.88;5024167;28;20194;-73
2023/01/18 02:00:37;;;;;;;38.17;18.23;;;;;;;-0.88;100.00;99133.31;5023242;28;20205;-73
2023/01/18 02:03:06;;;;;;;39.77;19.10;;;;;;;-0.92;100.00;99139.91;5023719;28;20575;-73
2023/01/18 02:05:35;;;;;;;39.97;19.83;;;;;;;-0.92;100.00;99134.88;5022523;28;20211;-73
2023/01/18 02:08:02;;;;;;;49.40;19.60;;;;;;;-0.93;100.00;99129.78;5024426;28;20199;-72
2023/01/18 02:10:29;;;;;;;37.87;18.43;;;;;;;-0.98;100.00;99134.66;5028472;28;20297;-73
2023/01/18 02:12:57;;;;;;;38.20;20.07;;;;;;;-0.99;100.00;99137.13;5022983;28;20218;-73
2023/01/18 02:15:32;;;;;;;40.77;19.03;;;;;;;-1.01;100.00;99141.25;5024824;28;20194;-72
2023/01/18 02:18:09;;;;;;;42.03;21.17;;;;;;;-1.04;100.00;99138.59;5023644;28;20210;-70
2023/01/18 02:21:10;;;;;;;37.43;19.43;;;;;;;-1.08;100.00;99137.66;5026392;28;20198;-73
2023/01/18 02:23:47;;;;;;;42.07;19.67;;;;;;;-1.08;100.00;99136.78;4973603;28;20355;-73
2023/01/18 02:26:37;;;;;;;38.60;19.77;;;;;;;-1.04;100.00;99136.09;5023575;28;20202;-73
2023/01/18 02:29:47;;;;;;;38.17;18.43;;;;;;;-1.05;100.00;99145.28;5020941;28;20211;-72
2023/01/18 02:32:52;;;;;;;37.40;18.47;;;;;;;-1.03;100.00;99143.69;4962928;28;20238;-73
2023/01/18 02:35:29;;;;;;;39.40;20.20;;;;;;;-1.03;100.00;99150.34;5005789;28;20198;-73
2023/01/18 02:38:13;;;;;;;38.03;19.00;;;;;;;-1.06;100.00;99145.25;5023816;28;20351;-73
2023/01/18 02:40:53;;;;;;;41.60;18.60;;;;;;;-1.09;100.00;99150.97;5023810;28;20190;-72
2023/01/18 02:48:55;;;;;;;39.97;19.30;;;;;;;-1.15;100.00;99145.72;5022037;28;20273;-73
2023/01/18 02:51:21;;;;;;;38.03;17.70;;;;;;;-1.18;100.00;99148.16;5021938;28;20213;-72
2023/01/18 02:53:47;;;;;;;36.23;19.37;;;;;;;-1.14;100.00;99149.94;5021404;28;20281;-72
2023/01/18 02:56:35;;;;;;;38.30;19.23;;;;;;;-1.13;100.00;99153.31;5022731;28;20208;-72
2023/01/18 02:59:11;;;;;;;37.53;19.47;;;;;;;-1.15;100.00;99149.91;5003915;28;20218;-73
2023/01/18 03:02:04;;;;;;;36.13;19.30;;;;;;;-1.16;100.00;99150.69;5032030;28;20738;-72
2023/01/18 03:04:36;;;;;;;36.67;17.77;;;;;;;-1.18;100.00;99154.81;5027876;28;20280;-72
2023/01/18 03:07:10;;;;;;;34.70;17.37;;;;;;;-1.19;100.00;99146.41;5029817;28;20560;-72
2023/01/18 03:09:36;;;;;;;38.70;18.17;;;;;;;-1.29;100.00;99148.53;5030412;28;20248;-72
2023/01/18 03:12:17;;;;;;;35.00;18.20;;;;;;;-1.31;100.00;99150.13;5009899;28;20882;-73
2023/01/18 03:15:08;;;;;;;37.03;16.87;;;;;;;-1.35;100.00;99148.28;5027885;28;20193;-73
2023/01/18 03:17:40;;;;;;;32.70;17.17;;;;;;;-1.41;100.00;99153.94;5031583;28;20275;-73
2023/01/18 03:20:11;;;;;;;31.43;16.10;;;;;;;-1.44;100.00;99156.34;5026948;28;20192;-74
2023/01/18 03:25:34;;;;;;;34.03;17.93;;;;;;;-1.44;100.00;99157.97;5025257;28;20617;-73
2023/01/18 03:33:44;;;;;;;32.93;17.07;;;;;;;-1.52;100.00;99164.38;5009488;28;20297;-73
2023/01/18 03:36:26;;;;;;;32.50;16.23;;;;;;;-1.55;100.00;99171.75;5025392;28;20229;-73
2023/01/18 03:39:09;;;;;;;34.10;18.23;;;;;;;-1.54;100.00;99171.84;5026746;28;20333;-73
2023/01/18 03:41:40;;;;;;;30.67;17.47;;;;;;;-1.53;100.00;99168.53;5028310;28;20679;-73
2023/01/18 03:44:13;;;;;;;31.00;15.97;;;;;;;-1.58;100.00;99169.13;5026862;28;20235;-72
2023/01/18 03:46:39;;;;;;;31.53;16.17;;;;;;;-1.65;100.00;99174.72;5025578;28;20815;-73
2023/01/18 03:49:06;;;;;;;31.57;17.23;;;;;;;-1.68;100.00;99179.59;5026402;28;20191;-73
2023/01/18 03:51:53;;;;;;;31.87;15.53;;;;;;;-1.69;100.00;99177.88;5029987;28;20671;-73
2023/01/18 03:54:47;;;;;;;30.60;16.53;;;;;;;-1.73;100.00;99194.47;5029713;28;20199;-73
2023/01/18 03:57:19;;;;;;;32.23;16.53;;;;;;;-1.74;100.00;99196.91;5023221;28;20238;-73
2023/01/18 03:59:45;;;;;;;28.80;15.63;;;;;;;-1.76;100.00;99198.50;5026551;28;20191;-73
2023/01/18 04:02:11;;;;;;;35.40;18.27;;;;;;;-1.79;100.00;99194.22;5032154;28;20210;-73
2023/01/18 04:04:36;;;;;;;33.60;17.17;;;;;;;-1.74;100.00;99194.41;5032506;28;20236;-73
2023/01/18 04:07:02;;;;;;;35.00;18.03;;;;;;;-1.70;100.00;99191.22;5011794;28;20287;-72
2023/01/18 04:09:28;;;;;;;32.93;16.83;;;;;;;-1.75;100.00;99191.03;5022329;28;20261;-73
2023/01/18 04:11:53;;;;;;;31.53;17.00;;;;;;;-1.79;100.00;99189.19;5021552;28;20876;-73
2023/01/18 04:14:19;;;;;;;39.63;16.70;;;;;;;-1.81;100.00;99192.44;5027918;28;20187;-73
2023/01/18 04:16:44;;;;;;;33.30;16.70;;;;;;;-1.86;100.00;99196.41;5011660;28;20533;-72
2023/01/18 04:19:10;;;;;;;33.03;17.00;;;;;;;-1.93;100.00;99195.31;5020612;28;20737;-73
2023/01/18 04:21:37;;;;;;;32.23;16.97;;;;;;;-1.99;100.00;99202.56;5027242;28;20675;-73
2023/01/18 04:24:03;;;;;;;30.93;15.67;;;;;;;-2.01;100.00;99203.31;5005751;28;20219;-73
2023/01/18 04:26:28;;;;;;;28.90;16.70;;;;;;;-2.02;100.00;99204.09;4996414;28;20206;-73
2023/01/18 04:28:54;;;;;;;34.07;17.17;;;;;;;-2.05;100.00;99193.94;5027963;28;20205;-73
2023/01/18 04:31:20;;;;;;;33.47;16.97;;;;;;;-2.10;100.00;99192.91;5024853;28;20226;-72
2023/01/18 04:33:50;;;;;;;29.73;16.40;;;;;;;-2.10;100.00;99201.28;5023195;28;20587;-73
2023/01/18 04:36:16;;;;;;;34.93;17.63;;;;;;;-2.12;100.00;99202.00;5010178;28;20306;-73
2023/01/18 04:38:41;;;;;;;39.43;20.07;;;;;;;-2.11;100.00;99208.72;5027864;28;20764;-73
2023/01/18 04:41:07;;;;;;;33.77;17.97;;;;;;;-2.08;100.00;99216.34;5026643;28;20222;-73
2023/01/18 04:43:32;;;;;;;38.43;19.20;;;;;;;-2.04;100.00;99218.22;5029239;28;20230;-73
2023/01/18 04:45:58;;;;;;;31.43;17.73;;;;;;;-2.04;100.00;99223.22;5027933;28;20210;-72
2023/01/18 04:48:23;;;;;;;36.13;17.77;;;;;;;-2.10;100.00;99228.00;5024204;28;20205;-72
2023/01/18 04:50:49;;;;;;;31.73;17.23;;;;;;;-2.17;100.00;99231.00;5029698;28;20814;-73
2023/01/18 04:53:16;;;;;;;33.83;17.97;;;;;;;-2.21;100.00;99231.69;5029105;28;20683;-73
2023/01/18 04:55:41;;;;;;;35.90;18.77;;;;;;;-2.26;100.00;99231.50;5028889;28;20289;-73
2023/01/18 04:58:07;;;;;;;32.27;17.30;;;;;;;-2.24;100.00;99234.06;5026511;28;20261;-72
2023/01/18 05:00:32;;;;;;;32.40;17.83;;;;;;;-2.21;100.00;99241.72;5026879;28;20288;-73
2023/01/18 05:02:58;;;;;;;34.20;17.67;;;;;;;-2.12;100.00;99247.13;5023392;28;20361;-72
2023/01/18 05:05:23;;;;;;;37.57;18.40;;;;;;;-2.07;100.00;99248.19;5020128;28;20211;-70
2023/01/18 05:07:48;;;;;;;36.73;18.57;;;;;;;-2.13;100.00;99248.75;5022448;28;20202;-73
2023/01/18 05:10:14;;;;;;;37.47;17.53;;;;;;;-2.19;100.00;99255.16;5026574;28;20648;-73
2023/01/18 05:12:40;;;;;;;30.10;16.70;;;;;;;-2.22;100.00;99257.53;5027982;28;20834;-73
2023/01/18 05:15:06;;;;;;;32.23;17.07;;;;;;;-2.18;100.00;99261.88;5026179;28;20717;-73
2023/01/18 05:17:33;;;;;;;35.23;17.73;;;;;;;-2.16;100.00;99255.31;5027410;28;20190;-72
2023/01/18 05:20:05;;;;;;;32.07;17.23;;;;;;;-2.15;100.00;99267.88;5026376;28;20191;-73
2023/01/18 05:22:31;;;;;;;33.27;17.33;;;;;;;-2.20;100.00;99263.47;5026029;28;20210;-73
2023/01/18 05:24:57;;;;;;;36.30;16.87;;;;;;;-2.27;100.00;99269.00;5018978;28;20215;-73
2023/01/18 05:27:23;;;;;;;36.63;17.17;;;;;;;-2.26;100.00;99278.25;5025910;28;20207;-72
2023/01/18 05:29:49;;;;;;;30.47;16.83;;;;;;;-2.27;100.00;99284.03;5004249;28;20203;-73
2023/01/18 05:32:14;;;;;;;33.30;16.13;;;;;;;-2.28;100.00;99288.22;5013341;28;20293;-72
2023/01/18 05:34:41;;;;;;;31.73;16.03;;;;;;;-2.34;100.00;99280.41;5023550;28;20260;-73
2023/01/18 05:37:06;;;;;;;32.77;16.47;;;;;;;-2.33;100.00;99291.28;5029350;28;20191;-72
2023/01/18 05:39:32;;;;;;;29.60;16.57;;;;;;;-2.34;100.00;99294.59;5025620;28;20191;-73
2023/01/18 05:41:58;;;;;;;29.87;15.67;;;;;;;-2.35;100.00;99296.22;5021158;28;20292;-72
2023/01/18 05:44:23;;;;;;;32.00;16.03;;;;;;;-2.41;100.00;99295.09;5026963;28;20222;-72
2023/01/18 05:46:49;;;;;;;30.73;15.63;;;;;;;-2.41;100.00;99300.09;5028402;28;20194;-74
2023/01/18 05:49:14;;;;;;;29.57;16.20;;;;;;;-2.47;100.00;99295.72;5025639;28;20528;-73
2023/01/18 05:51:39;;;;;;;28.13;15.50;;;;;;;-2.49;100.00;99301.44;5021612;28;20231;-73
2023/01/18 05:54:05;;;;;;;30.33;15.80;;;;;;;-2.44;100.00;99305.00;5001266;28;20187;-72
2023/01/18 05:56:31;;;;;;;36.63;17.30;;;;;;;-2.31;100.00;99308.09;5005109;28;20205;-73
2023/01/18 05:58:57;;;;;;;36.33;18.27;;;;;;;-2.27;100.00;99314.97;5023361;28;20201;-73
2023/01/18 06:01:22;;;;;;;33.43;17.30;;;;;;;-2.26;100.00;99316.69;5028471;28;20648;-73
2023/01/18 06:03:48;;;;;;;37.60;17.97;;;;;;;-2.26;100.00;99313.34;5007398;28;20218;-72
2023/01/18 06:06:15;;;;;;;34.60;17.33;;;;;;;-2.31;100.00;99314.75;5025752;28;20804;-71
2023/01/18 06:08:41;;;;;;;31.30;16.27;;;;;;;-2.35;100.00;99321.28;5021653;28;20186;-70
2023/01/18 06:11:08;;;;;;;34.47;17.03;;;;;;;-2.38;100.00;99322.81;5024354;28;20194;-74
2023/01/18 06:13:34;;;;;;;31.73;17.13;;;;;;;-2.40;100.00;99315.22;5021461;28;20221;-71
2023/01/18 06:16:01;;;;;;;35.83;17.10;;;;;;;-2.45;100.00;99318.28;5021980;28;20199;-71
2023/01/18 06:18:29;;;;;;;31.53;15.93;;;;;;;-2.51;100.00;99315.53;5010618;28;20272;-70
2023/01/18 06:20:56;;;;;;;28.20;15.50;;;;;;;-2.54;100.00;99321.25;5025509;28;20441;-70
2023/01/18 06:23:22;;;;;;;27.53;16.07;;;;;;;-2.54;100.00;99326.25;5029742;28;20202;-71
2023/01/18 06:25:48;;;;;;;30.43;15.27;;;;;;;-2.56;100.00;99330.34;5025995;28;20225;-70
2023/01/18 06:28:14;;;;;;;29.20;15.67;;;;;;;-2.60;100.00;99335.13;5026887;28;20445;-71
2023/01/18 06:30:41;;;;;;;64.03;36.93;;;;;;;-2.65;100.00;99339.94;5007587;28;20598;-70
2023/01/18 06:33:08;;;;;;;63.97;38.73;;;;;;;-2.64;100.00;99345.78;5025725;28;20293;-70
2023/01/18 06:35:34;;;;;;;46.37;24.77;;;;;;;-2.65;100.00;99346.59;5029519;28;20206;-70
2023/01/18 06:38:00;;;;;;;35.47;17.60;;;;;;;-2.63;100.00;99348.38;5021192;28;20199;-73
2023/01/18 06:40:26;;;;;;;29.33;16.33;;;;;;;-2.66;100.00;99352.41;5028660;28;20670;-74
2023/01/18 06:42:51;;;;;;;27.27;15.87;;;;;;;-2.68;100.00;99352.31;5023567;28;20229;-71
2023/01/18 06:45:18;;;;;;;32.10;16.03;;;;;;;-2.75;100.00;99350.28;5022348;28;20210;-71
2023/01/18 06:47:44;;;;;;;30.63;15.83;;;;;;;-2.79;100.00;99348.47;5034501;28;20190;-71
2023/01/18 06:50:10;;;;;;;29.67;15.60;;;;;;;-2.81;100.00;99347.53;5021366;28;20829;-72
2023/01/18 06:52:35;;;;;;;32.77;17.13;;;;;;;-2.82;100.00;99352.44;5021939;28;20218;-71
2023/01/18 06:55:01;;;;;;;29.60;16.20;;;;;;;-2.86;100.00;99353.97;5027444;28;20535;-71
2023/01/18 06:57:26;;;;;;;30.17;14.57;;;;;;;-2.89;100.00;99356.31;5033847;28;20237;-71
2023/01/18 06:59:52;;;;;;;34.83;16.70;;;;;;;-2.89;100.00;99360.47;5025405;28;20190;-72
2023/01/18 07:02:18;;;;;;;30.57;15.27;;;;;;;-2.91;100.00;99364.53;5027748;28;20217;-71
2023/01/18 07:04:44;;;;;;;30.80;16.27;;;;;;;-2.98;100.00;99370.91;5023395;28;20234;-72
2023/01/18 07:07:10;;;;;;;33.50;16.73;;;;;;;-2.98;100.00;99380.94;5027327;28;20830;-72
2023/01/18 07:09:36;;;;;;;32.00;16.07;;;;;;;-2.90;100.00;99373.78;5026132;28;20197;-72
2023/01/18 07:12:02;;;;;;;28.70;16.10;;;;;;;-2.83;100.00;99381.66;5009248;28;20568;-71
2023/01/18 07:14:27;;;;;;;27.20;15.53;;;;;;;-2.77;100.00;99386.94;5026437;28;20201;-72
2023/01/18 07:16:53;;;;;;;28.90;16.33;;;;;;;-2.79;100.00;99391.03;5025674;28;20199;-71
2023/01/18 07:19:18;;;;;;;34.53;16.80;;;;;;;-2.79;100.00;99400.16;5028094;28;20556;-73
2023/01/18 07:21:44;;;;;;;29.80;16.17;;;;;;;-2.87;100.00;99409.81;5025047;28;20765;-70
2023/01/18 07:24:09;;;;;;;31.10;18.47;;;;;;;-2.88;100.00;99412.25;5027862;28;20224;-70
2023/01/18 07:26:35;;;;;;;28.27;15.50;;;;;;;-2.83;100.00;99420.84;5026026;28;20190;-71
2023/01/18 07:29:01;;;;;;;32.47;15.77;;;;;;;-2.78;100.00;99421.91;5027652;28;21091;-70
2023/01/18 07:31:27;;;;;;;31.97;16.17;;;;;;;-2.72;100.00;99427.22;5024729;28;20206;-73
2023/01/18 07:33:52;;;;;;;30.50;16.63;;;;;;;-2.71;100.00;99436.47;5027492;28;20214;-72
2023/01/18 07:36:19;;;;;;;34.37;17.13;;;;;;;-2.68;100.00;99426.56;5022721;28;20816;-71
2023/01/18 07:38:46;;;;;;;28.27;15.47;;;;;;;-2.63;100.00;99442.66;5027009;28;20233;-71
2023/01/18 07:41:13;;;;;;;30.77;15.07;;;;;;;-2.68;100.00;99444.09;5004026;28;20436;-71
2023/01/18 07:43:40;;;;;;;29.17;15.60;;;;;;;-2.73;100.00;99453.03;5030531;28;20460;-72
2023/01/18 07:46:09;;;;;;;28.40;14.97;;;;;;;-2.74;100.00;99444.69;5028265;28;20271;-74
2023/01/18 07:48:34;;;;;;;28.73;15.03;;;;;;;-2.71;100.00;99444.81;5030812;28;20244;-72
2023/01/18 07:51:02;;;;;;;31.70;15.83;;;;;;;-2.62;100.00;99447.75;5025255;28;20528;-74
2023/01/18 07:53:29;;;;;;;38.57;20.07;;;;;;;-2.57;100.00;99453.00;5033185;28;20218;-71
2023/01/18 07:56:04;;;;;;;38.43;20.97;;;;;;;-2.50;100.00;99450.84;4991974;28;20194;-71
2023/01/18 07:58:29;;;;;;;123.67;50.60;;;;;;;-2.45;100.00;99443.53;5032319;28;20992;-73
2023/01/18 08:01:00;;;;;;;78.57;38.27;;;;;;;-2.42;100.00;99449.56;5025335;28;20561;-71
2023/01/18 08:03:25;;;;;;;43.27;23.07;;;;;;;-2.39;100.00;99447.19;5013082;28;20338;-71
2023/01/18 08:05:51;;;;;;;39.63;22.67;;;;;;;-2.38;100.00;99453.94;5028479;28;20340;-73
2023/01/18 08:08:17;;;;;;;35.97;19.70;;;;;;;-2.36;100.00;99459.88;5033222;28;20280;-69
2023/01/18 08:10:43;;;;;;;36.50;18.70;;;;;;;-2.30;100.00;99462.66;5010956;28;20277;-70
2023/01/18 08:13:09;;;;;;;36.80;17.57;;;;;;;-2.24;100.00;99470.47;5029651;28;20218;-72
2023/01/18 08:15:37;;;;;;;32.13;17.23;;;;;;;-2.21;100.00;99473.09;5030092;28;20224;-74
2023/01/18 08:18:04;;;;;;;37.60;17.13;;;;;;;-2.22;100.00;99480.56;5028030;28;20191;-71
2023/01/18 08:20:30;;;;;;;30.77;16.07;;;;;;;-2.15;100.00;99477.56;5036311;28;20324;-71
2023/01/18 08:22:57;;;;;;;31.83;16.83;;;;;;;-2.05;100.00;99482.22;5035023;28;20260;-74
2023/01/18 08:25:28;;;;;;;32.73;17.10;;;;;;;-2.01;100.00;99489.94;5001577;28;20328;-74
2023/01/18 08:27:56;;;;;;;28.60;16.43;;;;;;;-1.94;100.00;99494.44;5029303;28;20193;-73
2023/01/18 08:30:26;;;;;;;30.17;16.13;;;;;;;-1.85;100.00;99488.97;5014786;28;20302;-73
2023/01/18 08:32:56;;;;;;;29.63;16.87;;;;;;;-1.81;100.00;99495.84;5024240;28;20297;-73
2023/01/18 08:35:22;;;;;;;31.27;16.60;;;;;;;-1.71;100.00;99493.84;5008714;28;20195;-73
2023/01/18 08:37:48;;;;;;;26.83;14.63;;;;;;;-1.64;100.00;99493.34;5029922;28;20204;-73
2023/01/18 08:40:14;;;;;;;27.80;14.40;;;;;;;-1.56;100.00;99499.53;5024748;28;20194;-71
2023/01/18 08:42:39;;;;;;;27.83;15.77;;;;;;;-1.52;100.00;99503.91;5028912;28;20604;-71
2023/01/18 08:45:05;;;;;;;26.43;15.23;;;;;;;-1.47;100.00;99504.97;5026815;28;20329;-73
2023/01/18 08:47:31;;;;;;;28.93;16.37;;;;;;;-1.35;100.00;99507.16;5032272;28;20199;-74
2023/01/18 08:49:56;;;;;;;29.50;15.00;;;;;;;-1.28;100.00;99509.16;5025417;28;20197;-72
2023/01/18 08:52:22;;;;;;;31.13;16.57;;;;;;;-1.25;100.00;99509.25;5031385;28;20735;-72
2023/01/18 08:54:47;;;;;;;29.53;15.40;;;;;;;-1.17;100.00;99512.97;5026358;28;20201;-74
2023/01/18 08:57:12;;;;;;;26.80;15.03;;;;;;;-1.07;100.00;99520.09;5030057;28;20293;-73
2023/01/18 08:59:38;;;;;;;29.30;17.03;;;;;;;-0.98;100.00;99520.50;5019893;28;20199;-74
2023/01/18 09:02:03;;;;;;;30.23;15.17;;;;;;;-0.92;100.00;99520.78;5027175;28;20211;-74
2023/01/18 09:04:29;;;;;;;27.87;15.30;;;;;;;-0.78;100.00;99519.72;5027597;28;20226;-73
2023/01/18 09:06:54;;;;;;;26.77;15.23;;;;;;;-0.64;100.00;99528.69;5028212;28;20267;-73
2023/01/18 09:09:20;;;;;;;28.87;15.57;;;;;;;-0.58;100.00;99531.44;5031137;28;20201;-73
2023/01/18 09:11:45;;;;;;;26.23;15.63;;;;;;;-0.53;100.00;99532.50;5020144;28;20186;-73
2023/01/18 09:14:10;;;;;;;25.70;14.20;;;;;;;-0.33;100.00;99539.16;5025388;28;20215;-73
2023/01/18 09:16:36;;;;;;;23.57;14.07;;;;;;;-0.27;100.00;99541.97;5030916;28;20327;-74
2023/01/18 09:19:05;;;;;;;22.13;14.33;;;;;;;-0.13;100.00;99555.94;5028852;28;20214;-73
2023/01/18 09:21:30;;;;;;;22.57;13.57;;;;;;;0.20;100.00;99547.19;5034844;28;20222;-72
2023/01/18 09:23:58;;;;;;;26.77;13.87;;;;;;;0.44;100.00;99540.56;5008064;28;20281;-73
2023/01/18 09:26:24;;;;;;;25.50;14.03;;;;;;;0.62;100.00;99550.47;5012517;28;20274;-73
2023/01/18 09:28:51;;;;;;;24.73;13.43;;;;;;;0.66;100.00;99550.66;5028909;28;20736;-72
2023/01/18 09:31:17;;;;;;;24.87;14.03;;;;;;;0.77;100.00;99561.13;5020902;28;20194;-72
2023/01/18 09:33:43;;;;;;;24.97;14.80;;;;;;;0.64;100.00;99564.81;5025747;28;20222;-72
2023/01/18 09:36:11;;;;;;;23.60;14.00;;;;;;;0.63;100.00;99568.16;5032077;28;20179;-72
2023/01/18 09:38:38;;;;;;;24.73;14.40;;;;;;;0.74;100.00;99569.44;5015112;28;20205;-72
2023/01/18 09:41:15;;;;;;;23.30;14.07;;;;;;;0.86;100.00;99569.03;5010074;28;20209;-72
2023/01/18 09:43:49;;;;;;;22.97;13.30;;;;;;;0.99;100.00;99581.22;5031962;28;20214;-74
2023/01/18 09:46:20;;;;;;;22.93;12.90;;;;;;;0.97;100.00;99578.69;5011847;28;20594;-73
2023/01/18 09:48:54;;;;;;;24.50;13.97;;;;;;;1.19;100.00;99582.81;5004917;28;20321;-72
2023/01/18 09:51:26;;;;;;;25.43;13.37;;;;;;;1.41;100.00;99575.19;5028670;28;20193;-72
2023/01/18 09:54:28;;;;;;;23.83;14.13;;;;;;;1.61;100.00;99566.66;5034169;28;20626;-74
2023/01/18 09:57:06;;;;;;;20.23;12.40;;;;;;;1.74;100.00;99577.19;5006864;28;20229;-73
2023/01/18 09:59:36;;;;;;;22.03;13.07;;;;;;;1.69;100.00;99575.34;5027769;28;20593;-73
2023/01/18 10:02:15;;;;;;;19.57;12.77;;;;;;;2.01;100.00;99575.56;5030840;28;20301;-74
2023/01/18 10:04:43;;;;;;;21.10;12.30;;;;;;;2.22;100.00;99577.91;5008946;28;20206;-74
2023/01/18 10:07:15;;;;;;;20.60;12.37;;;;;;;2.15;100.00;99573.50;5035678;28;20197;-74
2023/01/18 10:09:48;;;;;;;20.13;12.60;;;;;;;2.35;100.00;99573.28;5015538;28;20323;-74
2023/01/18 10:12:37;;;;;;;20.20;11.97;;;;;;;2.88;100.00;99572.38;5031307;28;20211;-74
2023/01/18 10:15:09;;;;;;;20.63;11.80;;;;;;;2.92;99.72;99569.13;5027834;28;20194;-73
2023/01/18 10:17:40;;;;;;;19.97;12.00;;;;;;;3.30;97.91;99568.50;5031145;28;20275;-73
2023/01/18 10:20:20;;;;;;;20.97;11.87;;;;;;;3.54;95.04;99562.44;5026213;28;20272;-74
2023/01/18 10:22:49;;;;;;;22.20;12.17;;;;;;;3.69;94.33;99559.44;5027877;28;20721;-74
2023/01/18 10:25:31;;;;;;;16.90;11.33;;;;;;;3.73;93.14;99568.84;5028353;28;20714;-73
2023/01/18 10:28:08;;;;;;;20.53;11.47;;;;;;;3.67;94.33;99573.72;5026096;28;20186;-74
2023/01/18 10:31:09;;;;;;;17.90;11.37;;;;;;;4.02;92.80;99572.94;5008779;28;20202;-75
2023/01/18 10:33:39;;;;;;;16.77;12.10;;;;;;;4.35;89.82;99582.19;5012056;28;20236;-75
2023/01/18 10:36:24;;;;;;;17.10;11.20;;;;;;;5.31;85.67;99573.28;5023110;28;20179;-76
2023/01/18 10:38:53;;;;;;;17.87;10.93;;;;;;;6.43;76.52;99564.25;5026508;28;20194;-75
2023/01/18 10:41:24;;;;;;;16.63;10.60;;;;;;;7.25;71.62;99574.72;5014136;28;20201;-75
2023/01/18 10:43:51;;;;;;;20.20;11.83;;;;;;;7.15;70.93;99572.91;5009784;28;20245;-75
2023/01/18 10:46:18;;;;;;;16.80;11.40;;;;;;;7.10;69.74;99572.81;5031041;28;20232;-73
2023/01/18 10:48:50;;;;;;;15.57;11.03;;;;;;;6.97;70.15;99577.75;5017777;28;20706;-74
2023/01/18 10:51:36;;;;;;;15.70;10.50;;;;;;;7.08;68.76;99571.09;5028570;28;20194;-74
2023/01/18 10:54:17;;;;;;;17.23;10.73;;;;;;;5.56;74.00;99583.06;5027752;28;20194;-75
2023/01/18 10:56:43;;;;;;;15.93;11.27;;;;;;;5.06;77.83;99588.84;5031660;28;20693;-74
2023/01/18 10:59:24;;;;;;;16.50;11.07;;;;;;;4.86;81.79;99590.97;5028475;28;20181;-73
2023/01/18 11:01:55;;;;;;;19.07;11.63;;;;;;;4.60;82.71;99591.22;5030038;28;20268;-74
2023/01/18 11:04:26;;;;;;;19.90;11.37;;;;;;;3.99;83.36;99591.44;5009914;28;20218;-74
2023/01/18 11:06:58;;;;;;;16.67;11.37;;;;;;;4.21;86.15;99595.34;5028834;28;20182;-75
2023/01/18 11:09:39;;;;;;;20.00;11.57;;;;;;;4.59;85.03;99589.47;5028718;28;20202;-75
2023/01/18 11:12:37;;;;;;;20.27;12.07;;;;;;;4.32;85.72;99588.88;5008934;28;20210;-74
2023/01/18 11:15:12;;;;;;;18.87;11.33;;;;;;;4.73;85.86;99588.97;5027050;28;20205;-75
2023/01/18 11:17:37;;;;;;;21.50;12.57;;;;;;;4.72;84.16;99582.19;5024562;28;20710;-75
2023/01/18 11:20:15;;;;;;;16.93;11.27;;;;;;;6.85;76.41;99570.81;5029049;28;20273;-75
2023/01/18 11:23:05;;;;;;;17.47;11.80;;;;;;;7.13;71.61;99577.09;5031154;28;20217;-75
2023/01/18 11:25:49;;;;;;;17.90;11.40;;;;;;;7.45;67.34;99576.66;5016212;28;20297;-76
2023/01/18 11:28:21;;;;;;;15.67;11.50;;;;;;;7.35;65.83;99571.44;5036604;28;20189;-76
2023/01/18 11:30:55;;;;;;;16.23;11.20;;;;;;;7.55;65.69;99570.81;5022857;28;20204;-75
2023/01/18 11:33:24;;;;;;;17.63;12.13;;;;;;;7.03;67.45;99576.16;5017747;28;20729;-75
2023/01/18 11:35:55;;;;;;;18.30;12.00;;;;;;;6.73;69.07;99568.09;5031005;28;20178;-74
2023/01/18 11:38:26;;;;;;;16.57;12.03;;;;;;;6.06;74.25;99567.94;5009103;28;20226;-73
2023/01/18 11:41:02;;;;;;;19.17;12.23;;;;;;;6.08;73.17;99562.88;5030208;28;20278;-73
2023/01/18 11:43:29;;;;;;;19.33;11.83;;;;;;;7.25;70.39;99564.53;5027993;28;20304;-73
2023/01/18 11:46:02;;;;;;;16.40;11.40;;;;;;;7.58;67.48;99563.22;5013456;28;20217;-74
2023/01/18 11:48:43;;;;;;;18.53;12.43;;;;;;;7.96;65.70;99561.00;5015675;28;20226;-74
2023/01/18 11:51:08;;;;;;;15.63;10.17;;;;;;;8.49;63.10;99559.78;5022194;28;20221;-74
2023/01/18 11:53:53;;;;;;;14.60;11.30;;;;;;;8.73;62.24;99571.00;5027111;28;20276;-70